sensor_id;sensor_type;location;lat;lon;timestamp;temperature;humidity
13409;DHT22;6775;49.574;11.170;2023-03-12T00:00:07;-0.20;99.90
13409;DHT22;6775;49.574;11.170;2023-03-12T00:02:37;-0.20;99.90
13409;DHT22;6775;49.574;11.170;2023-03-12T00:05:05;-0.20;99.90
13409;DHT22;6775;49.574;11.170;2023-03-12T00:07:33;-0.50;99.90
13409;DHT22;6775;49.574;11.170;2023-03-12T00:10:02;-0.20;99.90
13409;DHT22;6775;49.574;11.170;2023-03-12T00:12:31;-0.20;99.90
13409;DHT22;6775;49.574;11.170;2023-03-12T00:15:00;-0.20;99.90
13409;DHT22;6775;49.574;11.170;2023-03-12T00:17:28;-0.20;99.90
13409;DHT22;6775;49.574;11.170;2023-03-12T00:19:55;-0.20;99.90
13409;DHT22;6775;49.574;11.170;2023-03-12T00:22:23;-0.40;99.90
13409;DHT22;6775;49.574;11.170;2023-03-12T00:24:52;-0.50;99.90
13409;DHT22;6775;49.574;11.170;2023-03-12T00:27:21;-0.50;99.90
13409;DHT22;6775;49.574;11.170;2023-03-12T00:29:50;-0.60;99.90
13409;DHT22;6775;49.574;11.170;2023-03-12T00:32:18;-0.70;99.90
13409;DHT22;6775;49.574;11.170;2023-03-12T00:34:50;-0.70;99.90
13409;DHT22;6775;49.574;11.170;2023-03-12T00:37:18;-0.70;99.90
13409;DHT22;6775;49.574;11.170;2023-03-12T00:39:46;-0.70;99.90
13409;DHT22;6775;49.574;11.170;2023-03-12T00:42:14;-0.60;99.90
13409;DHT22;6775;49.574;11.170;2023-03-12T00:44:42;-0.60;99.90
13409;DHT22;6775;49.574;11.170;2023-03-12T00:47:12;-0.60;99.90
13409;DHT22;6775;49.574;11.170;2023-03-12T00:49:40;-0.60;99.90
13409;DHT22;6775;49.574;11.170;2023-03-12T00:52:08;-0.60;99.90
13409;DHT22;6775;49.574;11.170;2023-03-12T00:54:35;-0.60;99.90
13409;DHT22;6775;49.574;11.170;2023-03-12T00:57:04;-0.60;99.90
13409;DHT22;6775;49.574;11.170;2023-03-12T00:59:31;-0.60;99.90
13409;DHT22;6775;49.574;11.170;2023-03-12T01:01:59;-0.60;99.90
13409;DHT22;6775;49.574;11.170;2023-03-12T01:04:28;-0.60;99.90
13409;DHT22;6775;49.574;11.170;2023-03-12T01:06:56;-0.60;99.90
13409;DHT22;6775;49.574;11.170;2023-03-12T01:09:24;-0.60;99.90
13409;DHT22;6775;49.574;11.170;2023-03-12T01:11:52;-0.70;99.90
13409;DHT22;6775;49.574;11.170;2023-03-12T01:14:20;-0.60;99.90
13409;DHT22;6775;49.574;11.170;2023-03-12T01:16:48;-0.60;99.90
13409;DHT22;6775;49.574;11.170;2023-03-12T01:19:18;-0.50;99.90
13409;DHT22;6775;49.574;11.170;2023-03-12T01:21:47;-0.40;99.90
13409;DHT22;6775;49.574;11.170;2023-03-12T01:24:15;-0.30;99.90
13409;DHT22;6775;49.574;11.170;2023-03-12T01:26:43;-0.20;99.90
13409;DHT22;6775;49.574;11.170;2023-03-12T01:29:11;-0.20;99.90
13409;DHT22;6775;49.574;11.170;2023-03-12T01:31:38;-0.20;99.90
13409;DHT22;6775;49.574;11.170;2023-03-12T01:34:09;-0.30;99.90
13409;DHT22;6775;49.574;11.170;2023-03-12T01:36:37;-0.40;99.90
13409;DHT22;6775;49.574;11.170;2023-03-12T01:39:07;-0.40;99.90
13409;DHT22;6775;49.574;11.170;2023-03-12T01:41:34;-0.40;99.90
13409;DHT22;6775;49.574;11.170;2023-03-12T01:44:03;-0.50;99.90
13409;DHT22;6775;49.574;11.170;2023-03-12T01:46:32;-0.50;99.90
13409;DHT22;6775;49.574;11.170;2023-03-12T01:49:04;-0.60;99.90
13409;DHT22;6775;49.574;11.170;2023-03-12T01:51:36;-0.70;99.90
13409;DHT22;6775;49.574;11.170;2023-03-12T01:54:10;-0.70;99.90
13409;DHT22;6775;49.574;11.170;2023-03-12T01:56:40;-0.80;99.90
13409;DHT22;6775;49.574;11.170;2023-03-12T01:59:13;-0.90;99.90
13409;DHT22;6775;49.574;11.170;2023-03-12T02:01:42;-1.00;99.90
13409;DHT22;6775;49.574;11.170;2023-03-12T02:04:11;-1.00;99.90
13409;DHT22;6775;49.574;11.170;2023-03-12T02:06:44;-1.10;99.90
13409;DHT22;6775;49.574;11.170;2023-03-12T02:09:18;-1.30;99.90
13409;DHT22;6775;49.574;11.170;2023-03-12T02:11:47;-1.40;99.90
13409;DHT22;6775;49.574;11.170;2023-03-12T02:14:15;-1.40;99.90
13409;DHT22;6775;49.574;11.170;2023-03-12T02:16:43;-1.50;99.90
13409;DHT22;6775;49.574;11.170;2023-03-12T02:19:17;-1.50;99.90
13409;DHT22;6775;49.574;11.170;2023-03-12T02:21:45;-1.60;99.90
13409;DHT22;6775;49.574;11.170;2023-03-12T02:24:21;-1.60;99.90
13409;DHT22;6775;49.574;11.170;2023-03-12T02:26:52;-1.50;99.90
13409;DHT22;6775;49.574;11.170;2023-03-12T02:29:20;-1.50;99.90
13409;DHT22;6775;49.574;11.170;2023-03-12T02:31:50;-1.40;99.90
13409;DHT22;6775;49.574;11.170;2023-03-12T02:34:19;-1.30;99.90
13409;DHT22;6775;49.574;11.170;2023-03-12T02:36:47;-1.20;99.90
13409;DHT22;6775;49.574;11.170;2023-03-12T02:39:15;-1.20;99.90
13409;DHT22;6775;49.574;11.170;2023-03-12T02:41:48;-1.10;99.90
13409;DHT22;6775;49.574;11.170;2023-03-12T02:44:21;-1.00;99.90
13409;DHT22;6775;49.574;11.170;2023-03-12T02:46:51;-1.00;99.90
13409;DHT22;6775;49.574;11.170;2023-03-12T02:49:20;-1.00;99.90
13409;DHT22;6775;49.574;11.170;2023-03-12T02:51:49;-1.00;99.90
13409;DHT22;6775;49.574;11.170;2023-03-12T02:54:19;-1.00;99.90
13409;DHT22;6775;49.574;11.170;2023-03-12T02:56:48;-1.00;99.90
13409;DHT22;6775;49.574;11.170;2023-03-12T02:59:15;-1.00;99.90
13409;DHT22;6775;49.574;11.170;2023-03-12T03:01:45;-0.90;99.90
13409;DHT22;6775;49.574;11.170;2023-03-12T03:04:13;-0.90;99.90
13409;DHT22;6775;49.574;11.170;2023-03-12T03:06:42;-0.90;99.90
13409;DHT22;6775;49.574;11.170;2023-03-12T03:09:10;-0.80;99.90
13409;DHT22;6775;49.574;11.170;2023-03-12T03:11:38;-0.80;99.90
13409;DHT22;6775;49.574;11.170;2023-03-12T03:14:06;-0.70;99.90
13409;DHT22;6775;49.574;11.170;2023-03-12T03:16:35;-0.70;99.90
13409;DHT22;6775;49.574;11.170;2023-03-12T03:19:05;-0.70;99.90
13409;DHT22;6775;49.574;11.170;2023-03-12T03:21:33;-0.70;99.90
13409;DHT22;6775;49.574;11.170;2023-03-12T03:24:00;-0.70;99.90
13409;DHT22;6775;49.574;11.170;2023-03-12T03:26:28;-0.70;99.90
13409;DHT22;6775;49.574;11.170;2023-03-12T03:28:56;-0.70;99.90
13409;DHT22;6775;49.574;11.170;2023-03-12T03:31:24;-0.70;99.90
13409;DHT22;6775;49.574;11.170;2023-03-12T03:33:52;-0.60;99.90
13409;DHT22;6775;49.574;11.170;2023-03-12T03:36:21;-0.60;99.90
13409;DHT22;6775;49.574;11.170;2023-03-12T03:38:49;-0.60;99.90
13409;DHT22;6775;49.574;11.170;2023-03-12T03:41:18;-0.50;99.90
13409;DHT22;6775;49.574;11.170;2023-03-12T03:43:46;-0.50;99.90
13409;DHT22;6775;49.574;11.170;2023-03-12T03:46:14;-0.60;99.90
13409;DHT22;6775;49.574;11.170;2023-03-12T03:48:42;-0.60;99.90
13409;DHT22;6775;49.574;11.170;2023-03-12T03:51:12;-0.70;99.90
13409;DHT22;6775;49.574;11.170;2023-03-12T03:53:41;-0.70;99.90
13409;DHT22;6775;49.574;11.170;2023-03-12T03:56:10;-0.70;99.90
13409;DHT22;6775;49.574;11.170;2023-03-12T03:58:38;-0.60;99.90
13409;DHT22;6775;49.574;11.170;2023-03-12T04:01:06;-0.60;99.90
13409;DHT22;6775;49.574;11.170;2023-03-12T04:03:34;-0.70;99.90
13409;DHT22;6775;49.574;11.170;2023-03-12T04:06:04;-0.70;99.90
13409;DHT22;6775;49.574;11.170;2023-03-12T04:08:33;-0.70;99.90
13409;DHT22;6775;49.574;11.170;2023-03-12T04:11:07;-0.70;99.90
13409;DHT22;6775;49.574;11.170;2023-03-12T04:13:35;-0.70;99.90
13409;DHT22;6775;49.574;11.170;2023-03-12T04:16:04;-0.70;99.90
13409;DHT22;6775;49.574;11.170;2023-03-12T04:18:32;-0.70;99.90
13409;DHT22;6775;49.574;11.170;2023-03-12T04:21:01;-0.70;99.90
13409;DHT22;6775;49.574;11.170;2023-03-12T04:23:29;-0.70;99.90
13409;DHT22;6775;49.574;11.170;2023-03-12T04:25:57;-0.70;99.90
13409;DHT22;6775;49.574;11.170;2023-03-12T04:28:26;-0.60;99.90
13409;DHT22;6775;49.574;11.170;2023-03-12T04:30:54;-0.60;99.90
13409;DHT22;6775;49.574;11.170;2023-03-12T04:33:22;-0.60;99.90
13409;DHT22;6775;49.574;11.170;2023-03-12T04:35:50;-0.60;99.90
13409;DHT22;6775;49.574;11.170;2023-03-12T04:38:19;-0.60;99.90
13409;DHT22;6775;49.574;11.170;2023-03-12T04:40:57;-0.60;99.90
13409;DHT22;6775;49.574;11.170;2023-03-12T04:43:27;-0.60;99.90
13409;DHT22;6775;49.574;11.170;2023-03-12T04:45:55;-0.60;99.90
13409;DHT22;6775;49.574;11.170;2023-03-12T04:48:24;-0.50;99.90
13409;DHT22;6775;49.574;11.170;2023-03-12T04:50:52;-0.50;99.90
13409;DHT22;6775;49.574;11.170;2023-03-12T04:53:21;-0.50;99.90
13409;DHT22;6775;49.574;11.170;2023-03-12T04:55:49;-0.50;99.90
13409;DHT22;6775;49.574;11.170;2023-03-12T04:58:17;-0.50;99.90
13409;DHT22;6775;49.574;11.170;2023-03-12T05:00:48;-0.50;99.90
13409;DHT22;6775;49.574;11.170;2023-03-12T05:03:16;-0.50;99.90
13409;DHT22;6775;49.574;11.170;2023-03-12T05:05:44;-0.50;99.90
13409;DHT22;6775;49.574;11.170;2023-03-12T05:08:12;-0.50;99.90
13409;DHT22;6775;49.574;11.170;2023-03-12T05:10:40;-0.50;99.90
13409;DHT22;6775;49.574;11.170;2023-03-12T05:13:14;-0.50;99.90
13409;DHT22;6775;49.574;11.170;2023-03-12T05:15:43;-0.50;99.90
13409;DHT22;6775;49.574;11.170;2023-03-12T05:18:12;-0.50;99.90
13409;DHT22;6775;49.574;11.170;2023-03-12T05:20:40;-0.60;99.90
13409;DHT22;6775;49.574;11.170;2023-03-12T05:23:08;-0.60;99.90
13409;DHT22;6775;49.574;11.170;2023-03-12T05:25:38;-0.60;99.90
13409;DHT22;6775;49.574;11.170;2023-03-12T05:28:06;-0.60;99.90
13409;DHT22;6775;49.574;11.170;2023-03-12T05:30:34;-0.60;99.90
13409;DHT22;6775;49.574;11.170;2023-03-12T05:33:01;-0.70;99.90
13409;DHT22;6775;49.574;11.170;2023-03-12T05:35:31;-0.60;99.90
13409;DHT22;6775;49.574;11.170;2023-03-12T05:37:58;-0.70;99.90
13409;DHT22;6775;49.574;11.170;2023-03-12T05:40:26;-0.70;99.90
13409;DHT22;6775;49.574;11.170;2023-03-12T05:42:54;-0.70;99.90
13409;DHT22;6775;49.574;11.170;2023-03-12T05:45:22;-0.70;99.90
13409;DHT22;6775;49.574;11.170;2023-03-12T05:47:49;-0.80;99.90
13409;DHT22;6775;49.574;11.170;2023-03-12T05:50:17;-0.80;99.90
13409;DHT22;6775;49.574;11.170;2023-03-12T05:52:46;-0.80;99.90
13409;DHT22;6775;49.574;11.170;2023-03-12T05:55:14;-0.70;99.90
13409;DHT22;6775;49.574;11.170;2023-03-12T05:57:42;-0.70;99.90
13409;DHT22;6775;49.574;11.170;2023-03-12T06:00:12;-0.60;99.90
13409;DHT22;6775;49.574;11.170;2023-03-12T06:02:43;-0.50;99.90
13409;DHT22;6775;49.574;11.170;2023-03-12T06:05:11;-0.50;99.90
13409;DHT22;6775;49.574;11.170;2023-03-12T06:07:39;-0.40;99.90
13409;DHT22;6775;49.574;11.170;2023-03-12T06:10:09;-0.40;99.90
13409;DHT22;6775;49.574;11.170;2023-03-12T06:12:37;-0.30;99.90
13409;DHT22;6775;49.574;11.170;2023-03-12T06:15:06;-0.30;99.90
13409;DHT22;6775;49.574;11.170;2023-03-12T06:17:34;-0.20;99.90
13409;DHT22;6775;49.574;11.170;2023-03-12T06:20:02;-0.20;99.90
13409;DHT22;6775;49.574;11.170;2023-03-12T06:22:30;-0.20;99.90
13409;DHT22;6775;49.574;11.170;2023-03-12T06:24:57;-0.20;99.90
13409;DHT22;6775;49.574;11.170;2023-03-12T06:27:27;-0.20;99.90
13409;DHT22;6775;49.574;11.170;2023-03-12T06:29:55;-0.10;99.90
13409;DHT22;6775;49.574;11.170;2023-03-12T06:32:22;0.00;99.90
13409;DHT22;6775;49.574;11.170;2023-03-12T06:34:51;0.10;99.90
13409;DHT22;6775;49.574;11.170;2023-03-12T06:37:19;0.20;99.90
13409;DHT22;6775;49.574;11.170;2023-03-12T06:39:47;0.30;99.90
13409;DHT22;6775;49.574;11.170;2023-03-12T06:42:14;0.40;99.90
13409;DHT22;6775;49.574;11.170;2023-03-12T06:44:45;0.60;99.90
13409;DHT22;6775;49.574;11.170;2023-03-12T06:47:13;0.60;99.90
13409;DHT22;6775;49.574;11.170;2023-03-12T06:49:43;0.70;99.90
13409;DHT22;6775;49.574;11.170;2023-03-12T06:52:11;0.90;99.90
13409;DHT22;6775;49.574;11.170;2023-03-12T06:54:39;1.00;99.90
13409;DHT22;6775;49.574;11.170;2023-03-12T06:57:06;1.10;99.90
13409;DHT22;6775;49.574;11.170;2023-03-12T06:59:34;1.10;99.90
13409;DHT22;6775;49.574;11.170;2023-03-12T07:02:03;1.20;99.90
13409;DHT22;6775;49.574;11.170;2023-03-12T07:04:31;1.30;99.90
13409;DHT22;6775;49.574;11.170;2023-03-12T07:06:59;1.40;99.90
13409;DHT22;6775;49.574;11.170;2023-03-12T07:09:27;1.60;99.90
13409;DHT22;6775;49.574;11.170;2023-03-12T07:11:55;1.70;99.90
13409;DHT22;6775;49.574;11.170;2023-03-12T07:14:22;1.80;99.90
13409;DHT22;6775;49.574;11.170;2023-03-12T07:16:50;1.90;99.90
13409;DHT22;6775;49.574;11.170;2023-03-12T07:19:19;2.10;99.90
13409;DHT22;6775;49.574;11.170;2023-03-12T07:21:47;2.30;99.90
13409;DHT22;6775;49.574;11.170;2023-03-12T07:24:15;2.50;99.90
13409;DHT22;6775;49.574;11.170;2023-03-12T07:26:43;2.80;99.90
13409;DHT22;6775;49.574;11.170;2023-03-12T07:29:11;2.90;99.90
13409;DHT22;6775;49.574;11.170;2023-03-12T07:31:39;3.00;99.90
13409;DHT22;6775;49.574;11.170;2023-03-12T07:34:07;3.20;99.90
13409;DHT22;6775;49.574;11.170;2023-03-12T07:36:36;3.30;99.90
13409;DHT22;6775;49.574;11.170;2023-03-12T07:39:04;3.50;99.90
13409;DHT22;6775;49.574;11.170;2023-03-12T07:41:32;3.60;99.90
13409;DHT22;6775;49.574;11.170;2023-03-12T07:44:02;3.60;99.90
13409;DHT22;6775;49.574;11.170;2023-03-12T07:46:30;3.70;99.90
13409;DHT22;6775;49.574;11.170;2023-03-12T07:48:58;3.90;99.90
13409;DHT22;6775;49.574;11.170;2023-03-12T07:51:26;3.80;99.90
13409;DHT22;6775;49.574;11.170;2023-03-12T07:53:56;3.70;99.90
13409;DHT22;6775;49.574;11.170;2023-03-12T07:56:23;3.70;99.90
13409;DHT22;6775;49.574;11.170;2023-03-12T07:58:51;3.60;99.90
13409;DHT22;6775;49.574;11.170;2023-03-12T08:01:19;3.60;99.90
13409;DHT22;6775;49.574;11.170;2023-03-12T08:03:47;3.80;99.90
13409;DHT22;6775;49.574;11.170;2023-03-12T08:06:15;3.90;99.90
13409;DHT22;6775;49.574;11.170;2023-03-12T08:08:43;4.10;99.90
13409;DHT22;6775;49.574;11.170;2023-03-12T08:11:12;4.30;99.90
13409;DHT22;6775;49.574;11.170;2023-03-12T08:13:40;4.20;99.90
13409;DHT22;6775;49.574;11.170;2023-03-12T08:16:08;4.20;99.90
13409;DHT22;6775;49.574;11.170;2023-03-12T08:18:36;4.20;99.90
13409;DHT22;6775;49.574;11.170;2023-03-12T08:21:04;4.10;99.90
13409;DHT22;6775;49.574;11.170;2023-03-12T08:23:32;4.00;99.90
13409;DHT22;6775;49.574;11.170;2023-03-12T08:26:01;3.90;99.90
13409;DHT22;6775;49.574;11.170;2023-03-12T08:28:30;3.80;99.90
13409;DHT22;6775;49.574;11.170;2023-03-12T08:30:59;3.80;99.90
13409;DHT22;6775;49.574;11.170;2023-03-12T08:33:27;3.80;99.90
13409;DHT22;6775;49.574;11.170;2023-03-12T08:35:55;3.90;99.90
13409;DHT22;6775;49.574;11.170;2023-03-12T08:38:23;3.90;99.90
13409;DHT22;6775;49.574;11.170;2023-03-12T08:40:55;4.10;99.90
13409;DHT22;6775;49.574;11.170;2023-03-12T08:43:24;4.20;99.90
13409;DHT22;6775;49.574;11.170;2023-03-12T08:45:56;4.30;99.90
13409;DHT22;6775;49.574;11.170;2023-03-12T08:48:25;4.40;99.90
13409;DHT22;6775;49.574;11.170;2023-03-12T08:50:54;4.70;99.90
13409;DHT22;6775;49.574;11.170;2023-03-12T08:53:22;4.90;99.90
13409;DHT22;6775;49.574;11.170;2023-03-12T08:55:51;5.30;99.90
13409;DHT22;6775;49.574;11.170;2023-03-12T08:58:19;5.90;99.90
13409;DHT22;6775;49.574;11.170;2023-03-12T09:00:47;6.70;99.90
13409;DHT22;6775;49.574;11.170;2023-03-12T09:03:16;7.20;99.90
13409;DHT22;6775;49.574;11.170;2023-03-12T09:05:44;8.00;99.90
13409;DHT22;6775;49.574;11.170;2023-03-12T09:08:12;8.60;96.90
13409;DHT22;6775;49.574;11.170;2023-03-12T09:10:46;8.50;96.50
13409;DHT22;6775;49.574;11.170;2023-03-12T09:13:14;8.10;96.30
13409;DHT22;6775;49.574;11.170;2023-03-12T09:15:42;7.60;96.10
13409;DHT22;6775;49.574;11.170;2023-03-12T09:18:10;7.20;96.90
13409;DHT22;6775;49.574;11.170;2023-03-12T09:20:41;7.10;97.30
13409;DHT22;6775;49.574;11.170;2023-03-12T09:23:08;7.30;97.70
13409;DHT22;6775;49.574;11.170;2023-03-12T09:25:36;7.70;96.20
13409;DHT22;6775;49.574;11.170;2023-03-12T09:28:04;8.10;96.00
13409;DHT22;6775;49.574;11.170;2023-03-12T09:30:32;8.20;95.20
13409;DHT22;6775;49.574;11.170;2023-03-12T09:33:00;8.00;95.80
13409;DHT22;6775;49.574;11.170;2023-03-12T09:35:27;7.70;95.90
13409;DHT22;6775;49.574;11.170;2023-03-12T09:37:58;7.30;97.40
13409;DHT22;6775;49.574;11.170;2023-03-12T09:40:29;7.10;98.60
13409;DHT22;6775;49.574;11.170;2023-03-12T09:42:58;6.80;99.10
13409;DHT22;6775;49.574;11.170;2023-03-12T09:45:29;6.80;99.80
13409;DHT22;6775;49.574;11.170;2023-03-12T09:47:59;6.70;99.90
13409;DHT22;6775;49.574;11.170;2023-03-12T09:50:30;6.70;99.90
13409;DHT22;6775;49.574;11.170;2023-03-12T09:53:02;6.70;99.90
13409;DHT22;6775;49.574;11.170;2023-03-12T09:55:34;6.70;99.90
13409;DHT22;6775;49.574;11.170;2023-03-12T09:58:04;6.60;99.90
13409;DHT22;6775;49.574;11.170;2023-03-12T10:00:36;6.30;99.90
13409;DHT22;6775;49.574;11.170;2023-03-12T10:03:18;6.20;99.90
13409;DHT22;6775;49.574;11.170;2023-03-12T10:06:00;6.00;99.90
13409;DHT22;6775;49.574;11.170;2023-03-12T10:08:38;5.90;99.90
13409;DHT22;6775;49.574;11.170;2023-03-12T10:11:18;5.90;99.90
13409;DHT22;6775;49.574;11.170;2023-03-12T10:14:04;5.90;99.90
13409;DHT22;6775;49.574;11.170;2023-03-12T10:16:51;5.90;99.90
13409;DHT22;6775;49.574;11.170;2023-03-12T10:19:33;5.90;99.90
13409;DHT22;6775;49.574;11.170;2023-03-12T10:22:09;5.90;99.90
13409;DHT22;6775;49.574;11.170;2023-03-12T10:24:50;5.80;99.90
13409;DHT22;6775;49.574;11.170;2023-03-12T10:27:24;5.80;99.90
13409;DHT22;6775;49.574;11.170;2023-03-12T10:29:54;5.80;99.90
13409;DHT22;6775;49.574;11.170;2023-03-12T10:32:26;5.80;99.90
13409;DHT22;6775;49.574;11.170;2023-03-12T10:34:59;5.90;99.90
13409;DHT22;6775;49.574;11.170;2023-03-12T10:37:33;5.90;99.90
13409;DHT22;6775;49.574;11.170;2023-03-12T10:40:05;5.90;99.90
13409;DHT22;6775;49.574;11.170;2023-03-12T10:42:34;5.80;99.90
13409;DHT22;6775;49.574;11.170;2023-03-12T10:45:16;5.70;99.90
13409;DHT22;6775;49.574;11.170;2023-03-12T10:47:49;5.70;99.90
13409;DHT22;6775;49.574;11.170;2023-03-12T10:50:20;5.70;99.90
13409;DHT22;6775;49.574;11.170;2023-03-12T10:52:50;5.80;99.90
13409;DHT22;6775;49.574;11.170;2023-03-12T10:55:24;5.70;99.90
13409;DHT22;6775;49.574;11.170;2023-03-12T10:57:53;5.70;99.90
13409;DHT22;6775;49.574;11.170;2023-03-12T11:00:23;5.60;99.90
13409;DHT22;6775;49.574;11.170;2023-03-12T11:02:59;5.60;99.90
13409;DHT22;6775;49.574;11.170;2023-03-12T11:05:30;5.70;99.90
13409;DHT22;6775;49.574;11.170;2023-03-12T11:08:00;5.60;99.90
13409;DHT22;6775;49.574;11.170;2023-03-12T11:10:40;5.70;99.90
13409;DHT22;6775;49.574;11.170;2023-03-12T11:13:27;5.70;99.90
13409;DHT22;6775;49.574;11.170;2023-03-12T11:15:57;5.70;99.90
13409;DHT22;6775;49.574;11.170;2023-03-12T11:18:29;5.80;99.90
13409;DHT22;6775;49.574;11.170;2023-03-12T11:21:13;5.90;99.90
13409;DHT22;6775;49.574;11.170;2023-03-12T11:23:44;5.80;99.90
13409;DHT22;6775;49.574;11.170;2023-03-12T11:26:18;5.70;99.90
13409;DHT22;6775;49.574;11.170;2023-03-12T11:28:48;5.70;99.90
13409;DHT22;6775;49.574;11.170;2023-03-12T11:31:22;5.70;99.90
13409;DHT22;6775;49.574;11.170;2023-03-12T11:33:53;5.80;99.90
13409;DHT22;6775;49.574;11.170;2023-03-12T11:36:43;5.80;99.90
13409;DHT22;6775;49.574;11.170;2023-03-12T11:39:19;5.80;99.90
13409;DHT22;6775;49.574;11.170;2023-03-12T11:42:02;5.80;99.90
13409;DHT22;6775;49.574;11.170;2023-03-12T11:44:40;5.70;99.90
13409;DHT22;6775;49.574;11.170;2023-03-12T11:47:24;5.70;99.90
13409;DHT22;6775;49.574;11.170;2023-03-12T11:50:16;5.70;99.90
13409;DHT22;6775;49.574;11.170;2023-03-12T11:52:56;5.70;99.90
13409;DHT22;6775;49.574;11.170;2023-03-12T11:55:38;5.60;99.90
13409;DHT22;6775;49.574;11.170;2023-03-12T11:58:25;5.60;99.90
13409;DHT22;6775;49.574;11.170;2023-03-12T12:01:00;5.60;99.90
13409;DHT22;6775;49.574;11.170;2023-03-12T12:03:48;5.60;99.90
13409;DHT22;6775;49.574;11.170;2023-03-12T12:06:25;5.50;99.90
13409;DHT22;6775;49.574;11.170;2023-03-12T12:09:17;5.50;99.90
13409;DHT22;6775;49.574;11.170;2023-03-12T12:11:57;5.50;99.90
13409;DHT22;6775;49.574;11.170;2023-03-12T12:14:48;5.60;99.90
13409;DHT22;6775;49.574;11.170;2023-03-12T12:17:28;5.60;99.90
13409;DHT22;6775;49.574;11.170;2023-03-12T12:20:16;5.60;99.90
13409;DHT22;6775;49.574;11.170;2023-03-12T12:22:56;5.60;99.90
13409;DHT22;6775;49.574;11.170;2023-03-12T12:25:37;5.60;99.90
13409;DHT22;6775;49.574;11.170;2023-03-12T12:28:19;5.70;99.90
13409;DHT22;6775;49.574;11.170;2023-03-12T12:31:00;5.70;99.90
13409;DHT22;6775;49.574;11.170;2023-03-12T12:33:43;5.70;99.90
13409;DHT22;6775;49.574;11.170;2023-03-12T12:36:15;5.80;99.90
13409;DHT22;6775;49.574;11.170;2023-03-12T12:38:47;5.70;99.90
13409;DHT22;6775;49.574;11.170;2023-03-12T12:41:21;5.70;99.90
13409;DHT22;6775;49.574;11.170;2023-03-12T12:43:52;5.70;99.90
13409;DHT22;6775;49.574;11.170;2023-03-12T12:46:27;5.60;99.90
13409;DHT22;6775;49.574;11.170;2023-03-12T12:48:59;5.60;99.90
13409;DHT22;6775;49.574;11.170;2023-03-12T12:51:30;5.70;99.90
13409;DHT22;6775;49.574;11.170;2023-03-12T12:54:02;5.70;99.90
13409;DHT22;6775;49.574;11.170;2023-03-12T12:56:37;5.70;99.90
13409;DHT22;6775;49.574;11.170;2023-03-12T12:59:24;5.70;99.90
13409;DHT22;6775;49.574;11.170;2023-03-12T13:01:58;5.70;99.90
13409;DHT22;6775;49.574;11.170;2023-03-12T13:04:30;5.70;99.90
13409;DHT22;6775;49.574;11.170;2023-03-12T13:07:01;5.70;99.90
13409;DHT22;6775;49.574;11.170;2023-03-12T13:09:38;5.70;99.90
13409;DHT22;6775;49.574;11.170;2023-03-12T13:12:17;5.70;99.90
13409;DHT22;6775;49.574;11.170;2023-03-12T13:14:47;5.60;99.90
13409;DHT22;6775;49.574;11.170;2023-03-12T13:17:26;5.70;99.90
13409;DHT22;6775;49.574;11.170;2023-03-12T13:19:59;5.80;99.90
13409;DHT22;6775;49.574;11.170;2023-03-12T13:22:48;5.80;99.90
13409;DHT22;6775;49.574;11.170;2023-03-12T13:25:30;5.80;99.90
13409;DHT22;6775;49.574;11.170;2023-03-12T13:28:27;5.80;99.90
13409;DHT22;6775;49.574;11.170;2023-03-12T13:30:58;5.90;99.90
13409;DHT22;6775;49.574;11.170;2023-03-12T13:33:39;5.90;99.90
13409;DHT22;6775;49.574;11.170;2023-03-12T13:36:20;6.00;99.90
13409;DHT22;6775;49.574;11.170;2023-03-12T13:38:56;6.00;99.90
13409;DHT22;6775;49.574;11.170;2023-03-12T13:41:32;5.90;99.90
13409;DHT22;6775;49.574;11.170;2023-03-12T13:44:23;6.00;99.90
13409;DHT22;6775;49.574;11.170;2023-03-12T13:47:00;6.00;99.90
13409;DHT22;6775;49.574;11.170;2023-03-12T13:49:39;5.90;99.90
13409;DHT22;6775;49.574;11.170;2023-03-12T13:52:21;6.00;99.90
13409;DHT22;6775;49.574;11.170;2023-03-12T13:54:57;6.00;99.90
13409;DHT22;6775;49.574;11.170;2023-03-12T13:57:35;6.10;99.90
13409;DHT22;6775;49.574;11.170;2023-03-12T14:00:13;6.10;99.90
13409;DHT22;6775;49.574;11.170;2023-03-12T14:02:46;6.20;99.90
13409;DHT22;6775;49.574;11.170;2023-03-12T14:05:18;6.20;99.90
13409;DHT22;6775;49.574;11.170;2023-03-12T14:08:23;6.20;99.90
13409;DHT22;6775;49.574;11.170;2023-03-12T14:11:05;6.20;99.90
13409;DHT22;6775;49.574;11.170;2023-03-12T14:13:46;6.20;99.90
13409;DHT22;6775;49.574;11.170;2023-03-12T14:16:19;6.20;99.90
13409;DHT22;6775;49.574;11.170;2023-03-12T14:18:50;6.30;99.90
13409;DHT22;6775;49.574;11.170;2023-03-12T14:21:22;6.30;99.90
13409;DHT22;6775;49.574;11.170;2023-03-12T14:23:54;6.40;99.90
13409;DHT22;6775;49.574;11.170;2023-03-12T14:26:25;6.40;99.90
13409;DHT22;6775;49.574;11.170;2023-03-12T14:28:57;6.40;99.90
13409;DHT22;6775;49.574;11.170;2023-03-12T14:31:28;6.50;99.90
13409;DHT22;6775;49.574;11.170;2023-03-12T14:34:00;6.50;99.90
13409;DHT22;6775;49.574;11.170;2023-03-12T14:36:36;6.50;99.90
13409;DHT22;6775;49.574;11.170;2023-03-12T14:39:16;6.50;99.90
13409;DHT22;6775;49.574;11.170;2023-03-12T14:41:48;6.60;99.90
13409;DHT22;6775;49.574;11.170;2023-03-12T14:44:21;6.60;99.90
13409;DHT22;6775;49.574;11.170;2023-03-12T14:46:57;6.60;99.90
13409;DHT22;6775;49.574;11.170;2023-03-12T14:49:26;6.70;99.90
13409;DHT22;6775;49.574;11.170;2023-03-12T14:51:55;6.70;99.90
13409;DHT22;6775;49.574;11.170;2023-03-12T14:54:25;6.80;99.90
13409;DHT22;6775;49.574;11.170;2023-03-12T14:56:54;6.80;99.90
13409;DHT22;6775;49.574;11.170;2023-03-12T14:59:25;6.80;99.90
13409;DHT22;6775;49.574;11.170;2023-03-12T15:01:57;6.90;99.90
13409;DHT22;6775;49.574;11.170;2023-03-12T15:04:26;6.90;99.90
13409;DHT22;6775;49.574;11.170;2023-03-12T15:06:56;6.90;99.90
13409;DHT22;6775;49.574;11.170;2023-03-12T15:09:28;7.00;99.90
13409;DHT22;6775;49.574;11.170;2023-03-12T15:11:58;7.00;99.90
13409;DHT22;6775;49.574;11.170;2023-03-12T15:14:31;7.10;99.90
13409;DHT22;6775;49.574;11.170;2023-03-12T15:16:59;7.10;99.90
13409;DHT22;6775;49.574;11.170;2023-03-12T15:19:31;7.10;99.90
13409;DHT22;6775;49.574;11.170;2023-03-12T15:22:02;7.20;99.90
13409;DHT22;6775;49.574;11.170;2023-03-12T15:24:37;7.20;99.90
13409;DHT22;6775;49.574;11.170;2023-03-12T15:27:20;7.20;99.90
13409;DHT22;6775;49.574;11.170;2023-03-12T15:29:50;7.20;99.90
13409;DHT22;6775;49.574;11.170;2023-03-12T15:32:20;7.20;99.90
13409;DHT22;6775;49.574;11.170;2023-03-12T15:34:51;7.20;99.90
13409;DHT22;6775;49.574;11.170;2023-03-12T15:37:23;7.20;99.90
13409;DHT22;6775;49.574;11.170;2023-03-12T15:39:55;7.30;99.90
13409;DHT22;6775;49.574;11.170;2023-03-12T15:42:24;7.30;99.90
13409;DHT22;6775;49.574;11.170;2023-03-12T15:44:54;7.30;99.90
13409;DHT22;6775;49.574;11.170;2023-03-12T15:47:25;7.30;99.90
13409;DHT22;6775;49.574;11.170;2023-03-12T15:49:56;7.30;99.90
13409;DHT22;6775;49.574;11.170;2023-03-12T15:52:28;7.40;99.90
13409;DHT22;6775;49.574;11.170;2023-03-12T15:55:02;7.40;99.90
13409;DHT22;6775;49.574;11.170;2023-03-12T15:57:31;7.50;99.90
13409;DHT22;6775;49.574;11.170;2023-03-12T16:00:21;7.50;99.90
13409;DHT22;6775;49.574;11.170;2023-03-12T16:02:52;7.50;99.90
13409;DHT22;6775;49.574;11.170;2023-03-12T16:05:23;7.60;99.90